Terminal Aerodrome Forecast
Issued by NWS Midland/Odessa, TX

Home | Current Version | Previous Version | Text Only | Print | Product List | Glossary On
Versions: 1 2 3 4 5 6 7 8 9 10 11 12 13 14 15 16 17 18 19 20 21 22 23 24 25 26 27 28 29
684
FTUS44 KMAF 261126
TAFMAF
TAF
KMAF 261126Z 2612/2712 20010KT P6SM FEW100 SCT250
     FM261600 24017G26KT P6SM FEW120 SCT250
     FM270100 19012KT P6SM SCT070 SCT250=

USA.gov is the U.S. government's official web portal to all federal, state and local government web resources and services.